createdAt,value
2023-05-14T00:01:00.386Z,101229.72
2023-05-14T00:06:05.600Z,101233.66
2023-05-14T00:11:09.239Z,101226.03
2023-05-14T00:16:12.986Z,101224.91
2023-05-14T00:21:18.296Z,101230.25
2023-05-14T00:26:21.713Z,101224.69
2023-05-14T00:31:25.423Z,101205.81
2023-05-14T00:36:31.169Z,101205.47
2023-05-14T00:41:34.672Z,101217.22
2023-05-14T00:46:38.350Z,101218.19
2023-05-14T00:51:46.751Z,101218.31
2023-05-14T00:56:51.890Z,101210.03
2023-05-14T01:01:55.625Z,101211.44
2023-05-14T01:07:09.278Z,101211.91
2023-05-14T01:12:18.960Z,101209.69
2023-05-14T01:17:23.275Z,101215.06
2023-05-14T01:22:28.012Z,101218.28
2023-05-14T01:27:36.860Z,101212.38
2023-05-14T01:32:40.860Z,101218.41
2023-05-14T01:37:46.806Z,101213.00
2023-05-14T01:42:52.197Z,101207.38
2023-05-14T01:47:55.868Z,101205.53
2023-05-14T01:53:00.972Z,101213.81
2023-05-14T01:58:04.512Z,101211.97
2023-05-14T02:03:08.170Z,101209.13
2023-05-14T02:08:13.017Z,101206.00
2023-05-14T02:13:16.553Z,101206.50
2023-05-14T02:18:20.289Z,101195.63
2023-05-14T02:23:34.043Z,101196.13
2023-05-14T02:28:37.864Z,101192.94
2023-05-14T02:33:41.337Z,101182.34
2023-05-14T02:38:46.407Z,101189.91
2023-05-14T02:43:50.026Z,101196.19
2023-05-14T02:48:53.482Z,101188.19
2023-05-14T02:53:58.838Z,101180.06
2023-05-14T02:59:02.451Z,101183.38
2023-05-14T03:04:06.596Z,101182.25
2023-05-14T03:09:11.363Z,101183.88
2023-05-14T03:14:14.809Z,101188.81
2023-05-14T03:19:18.180Z,101179.19
2023-05-14T03:24:22.985Z,101185.50
2023-05-14T03:29:26.668Z,101188.50
2023-05-14T03:34:30.086Z,101187.66
2023-05-14T03:39:35.032Z,101193.97
2023-05-14T03:44:41.482Z,101196.25
2023-05-14T03:49:45.012Z,101188.25
2023-05-14T03:54:51.480Z,101193.97
2023-05-14T03:59:54.846Z,101191.81
2023-05-14T04:04:58.239Z,101185.63
2023-05-14T04:10:04.721Z,101186.38
2023-05-14T04:15:10.440Z,101183.69
2023-05-14T04:20:13.963Z,101180.25
2023-05-14T04:25:19.344Z,101185.97
2023-05-14T04:30:23.035Z,101174.06
2023-05-14T04:35:26.583Z,101171.31
2023-05-14T04:40:31.874Z,101167.59
2023-05-14T04:45:35.444Z,101169.38
2023-05-14T04:50:38.816Z,101171.59
2023-05-14T04:55:43.507Z,101166.53
2023-05-14T05:00:47.209Z,101174.44
2023-05-14T05:05:50.878Z,101173.66
2023-05-14T05:10:55.780Z,101167.75
2023-05-14T05:15:59.629Z,101176.19
2023-05-14T05:21:03.060Z,101167.84
2023-05-14T05:26:07.957Z,101168.13
2023-05-14T05:31:11.354Z,101165.47
2023-05-14T05:36:15.265Z,101164.22
2023-05-14T05:41:20.470Z,101160.81
2023-05-14T05:46:23.833Z,101163.53
2023-05-14T05:51:27.500Z,101166.00
2023-05-14T05:56:32.351Z,101162.69
2023-05-14T06:01:35.964Z,101174.78
2023-05-14T06:06:39.445Z,101175.69
2023-05-14T06:11:44.400Z,101166.63
2023-05-14T06:16:48.338Z,101163.78
2023-05-14T06:21:52.095Z,101157.47
2023-05-14T06:26:56.781Z,101160.56
2023-05-14T06:32:04.027Z,101159.97
2023-05-14T06:37:07.486Z,101148.34
2023-05-14T06:42:12.217Z,101149.22
2023-05-14T06:47:15.586Z,101144.44
2023-05-14T06:52:18.952Z,101156.75
2023-05-14T06:57:23.628Z,101145.53
2023-05-14T07:02:27.058Z,101144.16
2023-05-14T07:07:30.426Z,101143.50
2023-05-14T07:12:35.192Z,101133.88
2023-05-14T07:17:38.803Z,101128.66
2023-05-14T07:22:42.171Z,101131.53
2023-05-14T07:27:46.918Z,101121.91
2023-05-14T07:32:50.633Z,101121.59
2023-05-14T07:37:54.363Z,101117.25
2023-05-14T07:42:59.277Z,101105.03
2023-05-14T07:48:02.722Z,101100.03
2023-05-14T07:53:06.156Z,101112.38
2023-05-14T07:58:10.909Z,101110.13
2023-05-14T08:03:14.872Z,101101.22
2023-05-14T08:08:18.479Z,101098.97
2023-05-14T08:13:23.259Z,101097.47
2023-05-14T08:18:26.954Z,101089.25
2023-05-14T08:23:30.340Z,101090.56
2023-05-14T08:28:35.190Z,101082.72
2023-05-14T08:33:38.592Z,101088.78
2023-05-14T08:38:42.389Z,101084.13
2023-05-14T08:43:53.448Z,101076.22
2023-05-14T08:48:59.870Z,101065.66
2023-05-14T08:54:04.768Z,101064.28
2023-05-14T08:59:10.355Z,101057.28
2023-05-14T09:04:15.860Z,101049.41
2023-05-14T09:09:22.715Z,101053.53
2023-05-14T09:14:30.229Z,101051.84
2023-05-14T09:19:33.804Z,101048.81
2023-05-14T09:24:38.692Z,101041.66
2023-05-14T09:29:43.531Z,101045.25
2023-05-14T09:34:47.111Z,101029.63
2023-05-14T09:39:50.960Z,101033.41
2023-05-14T09:44:56.024Z,101017.16
2023-05-14T09:49:59.419Z,101010.28
2023-05-14T09:55:02.896Z,101003.53
2023-05-14T10:00:10.209Z,101002.41
2023-05-14T10:05:15.854Z,100986.13
2023-05-14T10:10:21.425Z,100992.75
2023-05-14T10:15:32.043Z,100977.84
2023-05-14T10:20:36.684Z,100979.50
2023-05-14T10:25:42.922Z,100974.56
2023-05-14T10:30:49.742Z,100977.00
2023-05-14T10:35:57.622Z,100972.16
2023-05-14T10:41:03.702Z,100978.31
2023-05-14T10:46:11.061Z,100955.69
2023-05-14T10:51:21.061Z,100967.06
2023-05-14T10:56:26.240Z,100958.75
2023-05-14T11:01:34.018Z,100945.41
2023-05-14T11:06:40.141Z,100946.59
2023-05-14T11:11:45.632Z,100948.50
2023-05-14T11:16:51.952Z,100926.59
2023-05-14T11:21:55.548Z,100933.16
2023-05-14T11:26:58.996Z,100916.16
2023-05-14T11:32:05.876Z,100915.69
2023-05-14T11:37:10.735Z,100912.03
2023-05-14T11:42:16.733Z,100907.34
2023-05-14T11:47:22.549Z,100898.66
2023-05-14T11:52:25.910Z,100902.78
2023-05-14T11:57:29.320Z,100897.63
2023-05-14T12:02:34.431Z,100900.59
2023-05-14T12:07:38.141Z,100887.69
2023-05-14T12:12:41.570Z,100888.53
2023-05-14T12:17:50.921Z,100878.78
2023-05-14T12:22:54.378Z,100862.91
2023-05-14T12:27:57.809Z,100849.06
2023-05-14T12:33:02.548Z,100846.59
2023-05-14T12:38:06.219Z,100855.94
2023-05-14T12:43:09.554Z,100833.97
2023-05-14T12:48:14.453Z,100834.13
2023-05-14T12:53:18.143Z,100819.34
2023-05-14T12:58:21.589Z,100818.81
2023-05-14T13:03:27.306Z,100827.56
2023-05-14T13:08:31.209Z,100808.38
2023-05-14T13:13:34.596Z,100799.56
2023-05-14T13:18:39.374Z,100793.44
2023-05-14T13:23:42.759Z,100794.66
2023-05-14T13:28:46.558Z,100787.66
2023-05-14T13:33:51.515Z,100778.09
2023-05-14T13:38:54.961Z,100766.00
2023-05-14T13:43:58.573Z,100766.81
2023-05-14T13:49:03.306Z,100765.38
2023-05-14T13:54:07.036Z,100764.16
2023-05-14T13:59:11.089Z,100778.69
2023-05-14T14:04:16.446Z,100785.31
2023-05-14T14:09:19.844Z,100797.31
2023-05-14T14:14:23.231Z,100777.34
2023-05-14T14:19:28.148Z,100780.91
2023-05-14T14:24:31.505Z,100775.66
2023-05-14T14:29:35.664Z,100779.38
2023-05-14T14:34:40.386Z,100764.13
2023-05-14T14:39:43.804Z,100755.59
2023-05-14T14:44:47.381Z,100767.06
2023-05-14T14:49:52.326Z,100760.59
2023-05-14T14:54:56.468Z,100755.72
2023-05-14T15:00:01.495Z,100759.50
2023-05-14T15:05:08.293Z,100751.72
2023-05-14T15:10:11.996Z,100753.22
2023-05-14T15:15:15.422Z,100753.66
2023-05-14T15:20:20.248Z,100759.72
2023-05-14T15:25:25.092Z,100753.66
2023-05-14T15:30:28.832Z,100741.03
2023-05-14T15:35:33.747Z,100742.88
2023-05-14T15:40:37.327Z,100738.09
2023-05-14T15:45:40.740Z,100725.94
2023-05-14T15:50:48.984Z,100720.72
2023-05-14T15:55:53.104Z,100716.38
2023-05-14T16:00:56.471Z,100701.06
2023-05-14T16:06:01.164Z,100696.94
2023-05-14T16:11:05.458Z,100704.41
2023-05-14T16:16:09.222Z,100695.41
2023-05-14T16:21:14.150Z,100688.38
2023-05-14T16:26:17.554Z,100687.63
2023-05-14T16:31:21.021Z,100684.81
2023-05-14T16:36:26.468Z,100685.88
2023-05-14T16:41:29.969Z,100683.50
2023-05-14T16:46:34.151Z,100676.13
2023-05-14T16:51:42.970Z,100676.13
2023-05-14T16:56:48.066Z,100662.50
2023-05-14T17:01:51.836Z,100664.31
2023-05-14T17:06:57.308Z,100658.56
2023-05-14T17:12:01.025Z,100661.16
2023-05-14T17:17:05.540Z,100666.16
2023-05-14T17:22:10.955Z,100658.44
2023-05-14T17:27:16.003Z,100662.75
2023-05-14T17:32:20.284Z,100665.50
2023-05-14T17:37:25.168Z,100661.41
2023-05-14T17:42:28.554Z,100661.72
2023-05-14T17:47:32.112Z,100666.59
2023-05-14T17:52:37.669Z,100661.88
2023-05-14T17:57:41.589Z,100666.84
2023-05-14T18:02:45.115Z,100672.53
2023-05-14T18:07:50.094Z,100670.41
2023-05-14T18:12:53.827Z,100673.94
2023-05-14T18:17:57.386Z,100676.63
2023-05-14T18:23:02.429Z,100673.59
2023-05-14T18:28:06.195Z,100679.63
2023-05-14T18:33:09.624Z,100682.59
2023-05-14T18:38:15.344Z,100689.75
2023-05-14T18:43:19.934Z,100687.59
2023-05-14T18:48:23.393Z,100691.13
2023-05-14T18:53:29.234Z,100685.00
2023-05-14T18:58:32.834Z,100685.63
2023-05-14T19:03:36.348Z,100696.75
2023-05-14T19:08:41.533Z,100692.03
2023-05-14T19:13:46.701Z,100701.28
2023-05-14T19:18:50.159Z,100703.22
2023-05-14T19:23:55.009Z,100695.56
2023-05-14T19:28:58.885Z,100699.44
2023-05-14T19:34:02.484Z,100703.06
2023-05-14T19:39:07.231Z,100709.63
2023-05-14T19:44:10.567Z,100699.94
2023-05-14T19:49:14.057Z,100703.72
2023-05-14T19:54:19.200Z,100698.31
2023-05-14T19:59:23.142Z,100700.75
2023-05-14T20:04:26.588Z,100698.50
2023-05-14T20:09:31.510Z,100691.50
2023-05-14T20:14:35.041Z,100701.56
2023-05-14T20:19:38.636Z,100699.38
2023-05-14T20:24:44.215Z,100698.84
2023-05-14T20:29:51.417Z,100703.91
2023-05-14T20:34:54.951Z,100697.22
2023-05-14T20:40:00.509Z,100693.44
2023-05-14T20:45:05.281Z,100695.78
2023-05-14T20:50:09.966Z,100686.53
2023-05-14T20:55:15.094Z,100681.16
2023-05-14T21:00:19.695Z,100675.50
2023-05-14T21:05:23.769Z,100680.44
2023-05-14T21:10:29.011Z,100673.88
2023-05-14T21:15:32.685Z,100663.00
2023-05-14T21:20:36.349Z,100656.81
2023-05-14T21:25:41.342Z,100660.16
2023-05-14T21:30:45.045Z,100666.38
2023-05-14T21:35:48.685Z,100649.44
2023-05-14T21:40:53.960Z,100648.41
2023-05-14T21:45:59.142Z,100645.72
2023-05-14T21:51:02.683Z,100642.84
2023-05-14T21:56:10.947Z,100641.00
2023-05-14T22:01:14.555Z,100641.03
2023-05-14T22:06:18.134Z,100640.81
2023-05-14T22:11:23.489Z,100636.09
2023-05-14T22:16:27.414Z,100629.78
2023-05-14T22:21:30.997Z,100632.22
2023-05-14T22:26:35.969Z,100633.28
2023-05-14T22:31:39.603Z,100629.47
2023-05-14T22:36:43.210Z,100627.28
2023-05-14T22:41:55.105Z,100621.06
2023-05-14T22:46:59.258Z,100617.31
2023-05-14T22:52:05.953Z,100612.94
2023-05-14T22:57:11.071Z,100609.50
2023-05-14T23:02:17.631Z,100608.56
2023-05-14T23:07:26.117Z,100610.66
2023-05-14T23:12:31.671Z,100605.19
2023-05-14T23:17:35.229Z,100599.91
2023-05-14T23:22:38.725Z,100596.06
2023-05-14T23:27:43.687Z,100593.09
2023-05-14T23:32:47.548Z,100601.44
2023-05-14T23:37:51.151Z,100598.00
2023-05-14T23:42:57.345Z,100583.34
2023-05-14T23:48:02.677Z,100578.31
2023-05-14T23:53:06.209Z,100573.03
2023-05-14T23:58:12.801Z,100557.59
